Time;durP1;ratioP1;P1;durP2;ratioP2;P2;SDS_P1;SDS_P2;PMS_P1;PMS_P2;Temp;Humidity;BMP_temperature;BMP_pressure;BME280_temperature;BME280_humidity;BME280_pressure;Samples;Min_cycle;Max_cycle;Signal;HPM_P1;HPM_P2
2022/03/25 00:01:16;;;;;;;21.08;9.05;;;;;;;;;;5090335;28;20048;-81
2022/03/25 00:03:45;;;;;;;18.65;9.02;;;;;;;;;;5088502;28;20074;-83
2022/03/25 00:06:14;;;;;;;18.63;8.57;;;;;;;;;;5089947;28;20048;-82
2022/03/25 00:08:43;;;;;;;20.58;8.15;;;;;;;;;;5090626;28;20048;-82
2022/03/25 00:11:14;;;;;;;20.80;8.90;;;;;;;;;;5084829;28;20435;-82
2022/03/25 00:13:43;;;;;;;17.40;8.15;;;;;;;;;;5096508;28;20048;-82
2022/03/25 00:16:11;;;;;;;16.48;8.00;;;;;;;;;;5090638;28;20083;-82
2022/03/25 00:18:39;;;;;;;16.13;7.20;;;;;;;;;;5094322;28;20071;-82
2022/03/25 00:21:17;;;;;;;24.52;8.63;;;;;;;;;;5091090;28;20066;-82
2022/03/25 00:23:46;;;;;;;20.38;7.93;;;;;;;;;;5093729;28;20051;-82
2022/03/25 00:26:15;;;;;;;18.40;8.10;;;;;;;;;;5090073;28;20480;-82
2022/03/25 00:28:43;;;;;;;19.25;7.75;;;;;;;;;;5089934;28;20507;-82
2022/03/25 00:31:11;;;;;;;18.85;8.48;;;;;;;;;;5082282;28;20097;-82
2022/03/25 00:33:42;;;;;;;20.27;7.88;;;;;;;;;;5093587;28;20052;-82
2022/03/25 00:36:17;;;;;;;16.15;7.65;;;;;;;;;;5084044;28;20090;-82
2022/03/25 00:38:47;;;;;;;17.10;7.80;;;;;;;;;;5092244;28;20070;-81
2022/03/25 00:41:16;;;;;;;20.73;8.05;;;;;;;;;;5093565;28;20384;-82
2022/03/25 00:43:46;;;;;;;25.40;7.78;;;;;;;;;;5094744;28;20071;-82
2022/03/25 00:46:15;;;;;;;18.13;7.40;;;;;;;;;;5085934;28;20050;-82
2022/03/25 00:48:44;;;;;;;16.63;7.05;;;;;;;;;;5086718;28;20048;-83
2022/03/25 00:51:12;;;;;;;18.00;7.95;;;;;;;;;;5078994;28;20071;-82
2022/03/25 00:53:41;;;;;;;18.00;8.15;;;;;;;;;;5095015;28;20040;-83
2022/03/25 00:56:14;;;;;;;15.95;7.00;;;;;;;;;;5082108;28;20101;-82
2022/03/25 00:58:42;;;;;;;16.85;6.68;;;;;;;;;;5092497;28;20061;-84
2022/03/25 01:01:15;;;;;;;15.52;7.63;;;;;;;;;;5094631;28;20048;-82
2022/03/25 01:03:43;;;;;;;14.27;6.13;;;;;;;;;;5094524;28;20044;-82
2022/03/25 01:06:18;;;;;;;16.55;7.60;;;;;;;;;;5095441;28;20062;-82
2022/03/25 01:08:46;;;;;;;20.73;8.27;;;;;;;;;;5093532;28;20052;-81
2022/03/25 01:11:19;;;;;;;15.82;7.05;;;;;;;;;;5094228;28;20483;-81
2022/03/25 01:13:47;;;;;;;17.30;7.82;;;;;;;;;;5093607;28;20043;-82
2022/03/25 01:16:22;;;;;;;16.77;6.50;;;;;;;;;;5090477;28;20040;-82
2022/03/25 01:18:50;;;;;;;20.23;8.48;;;;;;;;;;5092006;28;20052;-82
2022/03/25 01:21:19;;;;;;;18.40;7.18;;;;;;;;;;5094243;28;20055;-82
2022/03/25 01:23:48;;;;;;;20.88;8.13;;;;;;;;;;5091282;28;20045;-82
2022/03/25 01:26:24;;;;;;;21.38;7.10;;;;;;;;;;5078601;28;20134;-82
2022/03/25 01:28:52;;;;;;;13.10;6.38;;;;;;;;;;5082466;28;20048;-82
2022/03/25 01:31:24;;;;;;;12.35;6.00;;;;;;;;;;5094240;28;20063;-81
2022/03/25 01:33:53;;;;;;;16.67;7.00;;;;;;;;;;5094752;28;20058;-82
2022/03/25 01:36:21;;;;;;;19.60;8.45;;;;;;;;;;5093645;28;20069;-82
2022/03/25 01:38:49;;;;;;;22.90;6.80;;;;;;;;;;5093231;28;20040;-82
2022/03/25 01:41:21;;;;;;;18.13;7.30;;;;;;;;;;5091662;28;20553;-82
2022/03/25 01:43:55;;;;;;;16.73;7.85;;;;;;;;;;5088930;28;20048;-81
2022/03/25 01:46:27;;;;;;;17.25;8.02;;;;;;;;;;5092526;28;20048;-82
2022/03/25 01:48:56;;;;;;;17.58;7.40;;;;;;;;;;5077388;28;20086;-81
2022/03/25 01:51:26;;;;;;;26.73;9.07;;;;;;;;;;5094310;28;20052;-82
2022/03/25 01:53:54;;;;;;;17.85;8.35;;;;;;;;;;5094224;28;20069;-82
2022/03/25 01:56:25;;;;;;;22.80;7.95;;;;;;;;;;5093169;28;20040;-82
2022/03/25 01:58:55;;;;;;;20.85;7.75;;;;;;;;;;5083495;28;20541;-82
2022/03/25 02:01:25;;;;;;;22.27;8.23;;;;;;;;;;5089007;28;20040;-82
2022/03/25 02:03:53;;;;;;;17.85;7.13;;;;;;;;;;5077239;28;20135;-81
2022/03/25 02:06:22;;;;;;;19.25;7.70;;;;;;;;;;5087428;28;20048;-81
2022/03/25 02:08:50;;;;;;;24.65;9.13;;;;;;;;;;5094551;28;20056;-82
2022/03/25 02:11:19;;;;;;;21.77;7.95;;;;;;;;;;5094028;28;20647;-82
2022/03/25 02:13:47;;;;;;;24.48;8.38;;;;;;;;;;5095809;28;20069;-83
2022/03/25 02:16:34;;;;;;;17.80;7.65;;;;;;;;;;5083562;28;20044;-82
2022/03/25 02:19:04;;;;;;;15.30;6.97;;;;;;;;;;5082569;28;20081;-82
2022/03/25 02:21:34;;;;;;;18.83;7.93;;;;;;;;;;5089929;28;20076;-82
2022/03/25 02:24:02;;;;;;;23.95;8.23;;;;;;;;;;5082487;28;20052;-82
2022/03/25 02:26:31;;;;;;;15.18;7.53;;;;;;;;;;5085989;28;20115;-82
2022/03/25 02:29:00;;;;;;;17.52;7.95;;;;;;;;;;5092020;28;20067;-83
2022/03/25 02:31:32;;;;;;;21.88;8.55;;;;;;;;;;5084532;28;20052;-82
2022/03/25 02:34:12;;;;;;;25.40;8.73;;;;;;;;;;5095351;28;20036;-86
2022/03/25 02:36:45;;;;;;;24.95;7.43;;;;;;;;;;5127581;22;20077;-65
2022/03/25 02:39:14;;;;;;;17.85;7.45;;;;;;;;;;5086655;28;20119;-66
2022/03/25 02:41:42;;;;;;;17.63;6.90;;;;;;;;;;5087024;28;20128;-66
2022/03/25 02:44:11;;;;;;;25.02;9.00;;;;;;;;;;5085872;28;20450;-66
2022/03/25 02:46:40;;;;;;;16.35;7.85;;;;;;;;;;5090067;28;20142;-66
2022/03/25 02:49:09;;;;;;;21.20;7.45;;;;;;;;;;5088341;28;20048;-66
2022/03/25 02:51:37;;;;;;;19.58;7.55;;;;;;;;;;5081211;28;20155;-66
2022/03/25 02:54:08;;;;;;;21.92;7.78;;;;;;;;;;5087716;28;20126;-66
2022/03/25 02:56:36;;;;;;;18.83;8.82;;;;;;;;;;5090196;28;20048;-66
2022/03/25 02:59:04;;;;;;;20.88;8.20;;;;;;;;;;5088064;28;20131;-65
2022/03/25 03:01:34;;;;;;;19.90;7.53;;;;;;;;;;5088770;28;20059;-66
2022/03/25 03:04:03;;;;;;;16.92;7.22;;;;;;;;;;5087236;28;20056;-65
2022/03/25 03:06:31;;;;;;;14.23;7.03;;;;;;;;;;5089585;28;20139;-66
2022/03/25 03:08:59;;;;;;;21.65;8.35;;;;;;;;;;5085230;28;20119;-66
2022/03/25 03:11:32;;;;;;;19.83;7.85;;;;;;;;;;5091256;28;20604;-66
2022/03/25 03:14:00;;;;;;;18.00;7.82;;;;;;;;;;5090738;28;20464;-66
2022/03/25 03:16:29;;;;;;;16.52;7.07;;;;;;;;;;5093574;28;20139;-66
2022/03/25 03:18:57;;;;;;;20.40;7.47;;;;;;;;;;5092513;28;20054;-65
2022/03/25 03:21:29;;;;;;;18.88;7.57;;;;;;;;;;5091637;28;20052;-66
2022/03/25 03:23:58;;;;;;;23.60;8.27;;;;;;;;;;5088727;28;20097;-65
2022/03/25 03:26:26;;;;;;;19.73;7.50;;;;;;;;;;5090508;28;20044;-65
2022/03/25 03:28:55;;;;;;;14.60;7.40;;;;;;;;;;5086946;28;20052;-65
2022/03/25 03:31:26;;;;;;;16.30;7.90;;;;;;;;;;5091790;28;20052;-66
2022/03/25 03:33:55;;;;;;;18.98;8.00;;;;;;;;;;5089194;28;20044;-65
2022/03/25 03:36:23;;;;;;;17.20;8.02;;;;;;;;;;5085110;28;20082;-66
2022/03/25 03:38:51;;;;;;;17.20;6.95;;;;;;;;;;5069411;28;20128;-65
2022/03/25 03:41:19;;;;;;;16.25;7.63;;;;;;;;;;5067680;28;20045;-65
2022/03/25 03:43:48;;;;;;;18.27;7.93;;;;;;;;;;5068837;28;20074;-66
2022/03/25 03:46:26;;;;;;;23.00;8.00;;;;;;;;;;5072781;28;20048;-65
2022/03/25 03:48:55;;;;;;;17.85;7.15;;;;;;;;;;5070370;28;20209;-66
2022/03/25 03:51:32;;;;;;;20.50;7.32;;;;;;;;;;5072463;28;20135;-65
2022/03/25 03:54:01;;;;;;;12.85;7.10;;;;;;;;;;5063341;28;20080;-65
2022/03/25 03:56:29;;;;;;;16.60;7.18;;;;;;;;;;5071422;28;20091;-65
2022/03/25 03:58:57;;;;;;;22.83;8.13;;;;;;;;;;5070593;28;20625;-65
2022/03/25 04:01:33;;;;;;;17.33;8.05;;;;;;;;;;5069173;28;20084;-65
2022/03/25 04:04:01;;;;;;;17.92;7.78;;;;;;;;;;5079271;28;20127;-66
2022/03/25 04:06:30;;;;;;;12.15;6.00;;;;;;;;;;5069942;28;20119;-66
2022/03/25 04:08:58;;;;;;;16.67;7.22;;;;;;;;;;5060229;28;20075;-66
2022/03/25 04:11:32;;;;;;;16.90;8.32;;;;;;;;;;5070002;28;20048;-65
2022/03/25 04:14:00;;;;;;;17.00;7.63;;;;;;;;;;5070267;28;20052;-66
2022/03/25 04:16:33;;;;;;;17.17;7.57;;;;;;;;;;5063595;28;20080;-65
2022/03/25 04:19:02;;;;;;;20.95;7.38;;;;;;;;;;5072733;28;20072;-65
2022/03/25 04:21:33;;;;;;;15.70;7.03;;;;;;;;;;5089920;28;20131;-65
2022/03/25 04:24:01;;;;;;;16.92;7.22;;;;;;;;;;5074563;28;20040;-65
2022/03/25 04:26:29;;;;;;;19.40;7.60;;;;;;;;;;5071763;28;20136;-65
2022/03/25 04:28:57;;;;;;;16.63;7.25;;;;;;;;;;5069537;28;20499;-65
2022/03/25 04:31:26;;;;;;;18.85;7.50;;;;;;;;;;5080228;28;20131;-65
2022/03/25 04:33:55;;;;;;;22.58;8.35;;;;;;;;;;5059856;28;20414;-65
2022/03/25 04:36:26;;;;;;;14.98;6.80;;;;;;;;;;5070239;28;20051;-65
2022/03/25 04:38:55;;;;;;;14.68;7.10;;;;;;;;;;5089211;28;20474;-66
2022/03/25 04:41:29;;;;;;;14.30;7.13;;;;;;;;;;5091370;28;20048;-65
2022/03/25 04:43:57;;;;;;;19.25;6.88;;;;;;;;;;5088525;28;20098;-65
2022/03/25 04:46:32;;;;;;;15.60;7.28;;;;;;;;;;5084140;28;20089;-66
2022/03/25 04:49:01;;;;;;;17.70;7.00;;;;;;;;;;5079818;28;20155;-65
2022/03/25 04:51:30;;;;;;;15.68;6.97;;;;;;;;;;5088826;28;20123;-66
2022/03/25 04:53:58;;;;;;;22.67;7.55;;;;;;;;;;5098691;28;20135;-65
2022/03/25 04:56:29;;;;;;;18.40;6.82;;;;;;;;;;5090195;28;20122;-65
2022/03/25 04:58:58;;;;;;;15.50;7.20;;;;;;;;;;5086455;28;20407;-66
2022/03/25 05:01:32;;;;;;;18.92;6.43;;;;;;;;;;5086408;28;20135;-65
2022/03/25 05:04:02;;;;;;;21.17;7.32;;;;;;;;;;5085397;28;20070;-65
2022/03/25 05:06:30;;;;;;;14.93;6.68;;;;;;;;;;5090419;28;20051;-65
2022/03/25 05:08:59;;;;;;;22.10;7.32;;;;;;;;;;5090777;28;20451;-65
2022/03/25 05:11:27;;;;;;;16.92;7.40;;;;;;;;;;5090713;28;20657;-65
2022/03/25 05:13:55;;;;;;;15.45;7.00;;;;;;;;;;5089098;28;20070;-65
2022/03/25 05:16:33;;;;;;;16.77;7.18;;;;;;;;;;5087405;28;20138;-65
2022/03/25 05:19:03;;;;;;;18.17;6.22;;;;;;;;;;5086089;28;20044;-65
2022/03/25 05:21:31;;;;;;;20.38;7.10;;;;;;;;;;5090071;28;20166;-65
2022/03/25 05:23:59;;;;;;;13.93;6.97;;;;;;;;;;5090344;28;20048;-65
2022/03/25 05:26:28;;;;;;;16.15;6.50;;;;;;;;;;5089382;28;20453;-65
2022/03/25 05:28:56;;;;;;;18.27;7.07;;;;;;;;;;5090103;28;20128;-65
2022/03/25 05:31:39;;;;;;;14.88;6.40;;;;;;;;;;5090138;28;20079;-65
2022/03/25 05:34:09;;;;;;;18.55;8.13;;;;;;;;;;5080849;28;20049;-65
2022/03/25 05:36:38;;;;;;;14.93;6.65;;;;;;;;;;5079659;28;20040;-65
2022/03/25 05:39:07;;;;;;;14.00;6.45;;;;;;;;;;5090152;28;20075;-65
2022/03/25 05:41:38;;;;;;;19.83;6.75;;;;;;;;;;5088129;28;20447;-65
2022/03/25 05:44:07;;;;;;;20.67;7.90;;;;;;;;;;5087138;28;20064;-65
2022/03/25 05:46:36;;;;;;;16.30;6.57;;;;;;;;;;5094417;28;20135;-65
2022/03/25 05:49:04;;;;;;;17.35;6.20;;;;;;;;;;5084893;28;20449;-65
2022/03/25 05:51:34;;;;;;;15.05;6.50;;;;;;;;;;5087469;28;20673;-66
2022/03/25 05:54:03;;;;;;;15.18;6.40;;;;;;;;;;5087396;28;20090;-66
2022/03/25 05:56:31;;;;;;;18.10;6.05;;;;;;;;;;5085777;28;20086;-66
2022/03/25 05:58:59;;;;;;;13.50;5.65;;;;;;;;;;5084564;28;20097;-66
2022/03/25 06:01:31;;;;;;;14.13;5.78;;;;;;;;;;5079127;28;20052;-66
2022/03/25 06:03:59;;;;;;;15.50;6.22;;;;;;;;;;5089408;28;20052;-66
2022/03/25 06:06:28;;;;;;;16.38;6.40;;;;;;;;;;5092486;28;20130;-66
2022/03/25 06:08:57;;;;;;;15.48;6.32;;;;;;;;;;5097227;28;20434;-66
2022/03/25 06:11:32;;;;;;;15.07;6.43;;;;;;;;;;5089284;28;20123;-66
2022/03/25 06:14:00;;;;;;;14.32;5.90;;;;;;;;;;5087498;28;20146;-66
2022/03/25 06:16:34;;;;;;;13.82;5.78;;;;;;;;;;5082970;28;20320;-66
2022/03/25 06:19:04;;;;;;;17.00;6.70;;;;;;;;;;5082410;28;20040;-66
2022/03/25 06:21:32;;;;;;;14.70;5.47;;;;;;;;;;5088664;28;20438;-67
2022/03/25 06:24:02;;;;;;;14.32;5.68;;;;;;;;;;5085724;28;20406;-66
2022/03/25 06:26:31;;;;;;;17.10;6.45;;;;;;;;;;5084676;28;20044;-66
2022/03/25 06:28:59;;;;;;;19.55;6.60;;;;;;;;;;5083645;28;20550;-67
2022/03/25 06:31:27;;;;;;;15.73;6.05;;;;;;;;;;5075557;28;20491;-66
2022/03/25 06:33:56;;;;;;;15.40;6.18;;;;;;;;;;5085553;28;20071;-66
2022/03/25 06:36:24;;;;;;;20.13;7.10;;;;;;;;;;5087212;28;20530;-67
2022/03/25 06:38:52;;;;;;;12.60;6.35;;;;;;;;;;5082576;28;20138;-67
2022/03/25 06:41:28;;;;;;;15.60;6.57;;;;;;;;;;5080920;28;20044;-67
2022/03/25 06:43:57;;;;;;;17.33;6.90;;;;;;;;;;5087525;28;20135;-67
2022/03/25 06:46:25;;;;;;;15.23;6.63;;;;;;;;;;5096435;28;20052;-66
2022/03/25 06:48:54;;;;;;;15.93;7.35;;;;;;;;;;5072593;28;20049;-67
2022/03/25 06:51:28;;;;;;;17.05;7.20;;;;;;;;;;5094246;28;20047;-67
2022/03/25 06:53:57;;;;;;;14.77;7.30;;;;;;;;;;5090986;28;20048;-67
2022/03/25 06:56:26;;;;;;;15.85;7.13;;;;;;;;;;5101732;28;20083;-67
2022/03/25 06:58:56;;;;;;;21.60;8.02;;;;;;;;;;5090715;28;20406;-67
2022/03/25 07:01:26;;;;;;;18.35;7.35;;;;;;;;;;5090137;28;20113;-67
2022/03/25 07:03:55;;;;;;;17.73;7.68;;;;;;;;;;5098108;28;20528;-67
2022/03/25 07:06:27;;;;;;;25.85;8.80;;;;;;;;;;5094148;28;20040;-67
2022/03/25 07:08:58;;;;;;;21.17;7.53;;;;;;;;;;5090533;28;20513;-67
2022/03/25 07:11:26;;;;;;;19.08;8.07;;;;;;;;;;5088721;28;20076;-67
2022/03/25 07:13:56;;;;;;;19.05;8.55;;;;;;;;;;5092663;28;20108;-67
2022/03/25 07:16:31;;;;;;;16.80;7.53;;;;;;;;;;5092780;28;20123;-67
2022/03/25 07:19:00;;;;;;;22.27;8.98;;;;;;;;;;5089994;28;20051;-67
2022/03/25 07:21:29;;;;;;;21.27;8.90;;;;;;;;;;5089437;28;20296;-67
2022/03/25 07:23:57;;;;;;;30.52;10.88;;;;;;;;;;5078855;28;20138;-64
2022/03/25 07:26:38;;;;;;;27.92;10.50;;;;;;;;;;5089209;28;20052;-64
2022/03/25 07:29:08;;;;;;;26.88;10.18;;;;;;;;;;5089494;28;20155;-64
2022/03/25 07:31:36;;;;;;;25.05;10.35;;;;;;;;;;5093363;28;20044;-66
2022/03/25 07:34:05;;;;;;;22.95;9.93;;;;;;;;;;5093898;28;20075;-66
2022/03/25 07:36:33;;;;;;;25.10;9.95;;;;;;;;;;5087647;28;20047;-66
2022/03/25 07:39:02;;;;;;;29.15;9.77;;;;;;;;;;5090852;28;20068;-66
2022/03/25 07:41:43;;;;;;;25.88;10.40;;;;;;;;;;5086963;28;20087;-66
2022/03/25 07:44:12;;;;;;;26.85;10.98;;;;;;;;;;5092762;28;20125;-66
2022/03/25 07:46:41;;;;;;;27.27;11.60;;;;;;;;;;5092993;28;20044;-66
2022/03/25 07:49:09;;;;;;;28.10;11.10;;;;;;;;;;5090290;28;20051;-66
2022/03/25 07:51:38;;;;;;;25.25;10.68;;;;;;;;;;5092120;28;20064;-66
2022/03/25 07:54:07;;;;;;;29.95;11.07;;;;;;;;;;5091695;28;20055;-66
2022/03/25 07:56:35;;;;;;;23.70;10.73;;;;;;;;;;5091449;28;20048;-65
2022/03/25 07:59:04;;;;;;;32.50;10.57;;;;;;;;;;5075183;28;20502;-66
2022/03/25 08:01:34;;;;;;;24.90;10.95;;;;;;;;;;5091807;28;20040;-66
2022/03/25 08:04:02;;;;;;;31.15;11.18;;;;;;;;;;5092102;28;20062;-66
2022/03/25 08:06:31;;;;;;;30.00;11.73;;;;;;;;;;5091098;28;20044;-66
2022/03/25 08:09:01;;;;;;;32.40;11.63;;;;;;;;;;5092216;28;20457;-66
2022/03/25 08:11:30;;;;;;;28.05;11.00;;;;;;;;;;5090555;28;20047;-66
2022/03/25 08:13:59;;;;;;;30.63;11.52;;;;;;;;;;5099584;28;20048;-66
2022/03/25 08:16:28;;;;;;;26.10;11.25;;;;;;;;;;5092788;28;20135;-66
2022/03/25 08:18:58;;;;;;;25.98;11.35;;;;;;;;;;5090311;28;20131;-66
2022/03/25 08:21:39;;;;;;;31.60;11.65;;;;;;;;;;5091894;28;20060;-66
2022/03/25 08:29:39;;;;;;;30.92;11.93;;;;;;;;;;5090109;28;20475;-66
2022/03/25 08:32:08;;;;;;;27.83;11.38;;;;;;;;;;5082098;28;20048;-66
2022/03/25 08:34:38;;;;;;;28.88;12.30;;;;;;;;;;5092226;28;20092;-65
2022/03/25 08:37:06;;;;;;;30.83;12.13;;;;;;;;;;5090140;28;20083;-66
2022/03/25 08:39:35;;;;;;;32.70;13.30;;;;;;;;;;5089191;28;20043;-66
2022/03/25 08:42:05;;;;;;;27.60;11.68;;;;;;;;;;5089930;28;20387;-66
2022/03/25 08:44:33;;;;;;;29.02;12.57;;;;;;;;;;5090005;28;20134;-66
2022/03/25 08:47:03;;;;;;;28.00;11.68;;;;;;;;;;5084406;28;20052;-66
2022/03/25 08:49:33;;;;;;;32.58;12.40;;;;;;;;;;5091858;28;20048;-66
2022/03/25 08:52:06;;;;;;;31.02;12.32;;;;;;;;;;5090035;28;20561;-66
2022/03/25 08:54:34;;;;;;;27.02;11.98;;;;;;;;;;5089011;28;20513;-66
2022/03/25 08:57:03;;;;;;;25.27;11.98;;;;;;;;;;5091402;28;20097;-66
2022/03/25 08:59:32;;;;;;;29.52;12.65;;;;;;;;;;5088851;28;20105;-66
2022/03/25 09:02:00;;;;;;;24.60;12.13;;;;;;;;;;5088452;28;20130;-66
2022/03/25 09:04:30;;;;;;;25.25;12.45;;;;;;;;;;5087996;28;20132;-66
2022/03/25 09:06:59;;;;;;;24.75;11.07;;;;;;;;;;5081859;28;20047;-66
2022/03/25 09:09:30;;;;;;;29.95;12.60;;;;;;;;;;5086815;28;20339;-66
2022/03/25 09:11:59;;;;;;;31.48;12.32;;;;;;;;;;5090649;28;20040;-66
2022/03/25 09:14:33;;;;;;;32.03;12.65;;;;;;;;;;5086789;28;20056;-66
2022/03/25 09:17:01;;;;;;;30.52;12.43;;;;;;;;;;5089613;28;20044;-66
2022/03/25 09:19:30;;;;;;;28.58;12.60;;;;;;;;;;5088702;28;20063;-66
2022/03/25 09:21:58;;;;;;;23.33;12.30;;;;;;;;;;5085961;28;20418;-67
2022/03/25 09:24:27;;;;;;;32.35;13.60;;;;;;;;;;5084183;28;20566;-66
2022/03/25 09:26:57;;;;;;;28.83;12.38;;;;;;;;;;5088544;28;20052;-66
2022/03/25 09:29:25;;;;;;;28.00;13.32;;;;;;;;;;5089637;28;20075;-67
2022/03/25 09:31:54;;;;;;;29.05;12.88;;;;;;;;;;5086319;28;20556;-67
2022/03/25 09:37:35;;;;;;;36.50;13.30;;;;;;;;;;5072325;28;20094;-66
2022/03/25 09:40:04;;;;;;;26.02;12.95;;;;;;;;;;5075650;28;20103;-67
2022/03/25 09:42:35;;;;;;;27.92;13.13;;;;;;;;;;5081757;28;20333;-66
2022/03/25 09:45:05;;;;;;;28.92;12.52;;;;;;;;;;5085701;28;20051;-66
2022/03/25 09:47:34;;;;;;;28.17;11.95;;;;;;;;;;5088436;28;20044;-66
2022/03/25 09:50:03;;;;;;;30.73;13.50;;;;;;;;;;5086777;28;20135;-66
2022/03/25 09:52:33;;;;;;;28.88;13.25;;;;;;;;;;5089177;28;20044;-66
2022/03/25 09:55:21;;;;;;;24.48;12.30;;;;;;;;;;5090335;28;20522;-66
2022/03/25 09:57:52;;;;;;;32.60;13.23;;;;;;;;;;5088668;28;20051;-66
2022/03/25 10:00:20;;;;;;;29.73;13.05;;;;;;;;;;5083616;28;20127;-66
2022/03/25 10:02:50;;;;;;;28.92;12.80;;;;;;;;;;5087712;28;20048;-66
2022/03/25 10:05:19;;;;;;;28.08;12.88;;;;;;;;;;5088528;28;20494;-66
2022/03/25 10:07:49;;;;;;;27.15;12.65;;;;;;;;;;5085965;28;20131;-66
2022/03/25 10:10:18;;;;;;;31.73;13.98;;;;;;;;;;5087431;28;20060;-66
2022/03/25 10:12:48;;;;;;;31.05;14.55;;;;;;;;;;5088617;28;20751;-67
2022/03/25 10:15:20;;;;;;;30.40;14.80;;;;;;;;;;5087226;28;20517;-66
2022/03/25 10:17:52;;;;;;;30.77;13.65;;;;;;;;;;5089630;28;20048;-67
2022/03/25 10:20:22;;;;;;;31.35;14.35;;;;;;;;;;5085624;28;20419;-66
2022/03/25 10:23:10;;;;;;;34.30;15.82;;;;;;;;;;5089945;28;20044;-66
2022/03/25 10:25:40;;;;;;;25.33;13.45;;;;;;;;;;5092605;28;20048;-67
2022/03/25 10:28:23;;;;;;;30.88;14.23;;;;;;;;;;5104473;28;20039;-68
2022/03/25 10:30:54;;;;;;;29.75;14.45;;;;;;;;;;5108857;27;20040;-67
2022/03/25 10:33:24;;;;;;;29.13;13.85;;;;;;;;;;5087247;28;20063;-67
2022/03/25 10:35:56;;;;;;;29.10;15.52;;;;;;;;;;5086235;28;20066;-67
2022/03/25 10:38:26;;;;;;;27.83;13.50;;;;;;;;;;5081393;28;20502;-66
2022/03/25 10:40:55;;;;;;;26.73;13.45;;;;;;;;;;5080127;28;20048;-66
2022/03/25 10:43:25;;;;;;;32.47;14.50;;;;;;;;;;5083144;28;20072;-67
2022/03/25 10:45:54;;;;;;;34.03;14.02;;;;;;;;;;5080810;28;20052;-66
2022/03/25 10:48:24;;;;;;;29.08;14.25;;;;;;;;;;5086008;28;20064;-67
2022/03/25 10:50:56;;;;;;;29.73;14.48;;;;;;;;;;5071996;28;20079;-68
2022/03/25 10:53:25;;;;;;;33.13;14.95;;;;;;;;;;5072320;28;20433;-67
2022/03/25 10:55:54;;;;;;;27.98;14.35;;;;;;;;;;5073145;28;20094;-67
2022/03/25 10:58:23;;;;;;;33.92;16.02;;;;;;;;;;5074131;28;20048;-67
2022/03/25 11:00:51;;;;;;;31.95;15.43;;;;;;;;;;5049356;28;20041;-67
2022/03/25 11:03:21;;;;;;;30.85;14.18;;;;;;;;;;5058250;28;20052;-67
2022/03/25 11:05:50;;;;;;;27.25;13.52;;;;;;;;;;5078122;28;20048;-67
2022/03/25 11:08:19;;;;;;;30.92;15.10;;;;;;;;;;5069718;28;20051;-67
2022/03/25 11:10:53;;;;;;;28.80;14.60;;;;;;;;;;5070638;28;20040;-67
2022/03/25 11:13:23;;;;;;;28.33;13.98;;;;;;;;;;5075124;28;20123;-67
2022/03/25 11:15:53;;;;;;;29.40;13.95;;;;;;;;;;5068445;28;20056;-68
2022/03/25 11:18:23;;;;;;;27.70;14.13;;;;;;;;;;5070108;28;20040;-67
2022/03/25 11:20:52;;;;;;;33.28;14.73;;;;;;;;;;5067362;28;20116;-67
2022/03/25 11:23:23;;;;;;;25.65;13.88;;;;;;;;;;5068209;28;20037;-68
2022/03/25 11:25:53;;;;;;;33.05;14.05;;;;;;;;;;5073917;28;20055;-67
2022/03/25 11:28:27;;;;;;;26.63;13.57;;;;;;;;;;5066735;28;20037;-67
2022/03/25 11:30:59;;;;;;;30.75;14.52;;;;;;;;;;5051624;28;20139;-67
2022/03/25 11:33:29;;;;;;;28.98;13.93;;;;;;;;;;5047876;28;20045;-68
2022/03/25 11:36:24;;;;;;;28.27;13.90;;;;;;;;;;5057187;28;20079;-67
2022/03/25 11:39:15;;;;;;;25.98;13.57;;;;;;;;;;5068748;28;20047;-67
2022/03/25 11:42:08;;;;;;;28.98;14.27;;;;;;;;;;5071922;28;20458;-68
2022/03/25 11:48:37;;;;;;;29.52;14.70;;;;;;;;;;5061574;28;20159;-66
2022/03/25 11:51:24;;;;;;;26.85;13.32;;;;;;;;;;5055624;28;20055;-67
2022/03/25 11:53:53;;;;;;;27.52;14.27;;;;;;;;;;5070695;28;20044;-67
2022/03/25 11:56:21;;;;;;;30.33;13.75;;;;;;;;;;5073804;28;20481;-67
2022/03/25 11:59:00;;;;;;;29.83;14.80;;;;;;;;;;5077637;28;20475;-66
2022/03/25 12:01:30;;;;;;;26.15;14.90;;;;;;;;;;5069821;28;20048;-67
2022/03/25 12:04:01;;;;;;;25.00;12.88;;;;;;;;;;5068309;28;20053;-67
2022/03/25 12:06:30;;;;;;;22.98;12.75;;;;;;;;;;5067428;28;20045;-68
2022/03/25 12:08:59;;;;;;;24.38;13.13;;;;;;;;;;5069954;28;20068;-66
2022/03/25 12:11:47;;;;;;;26.63;13.20;;;;;;;;;;5065770;28;20060;-67
2022/03/25 12:14:15;;;;;;;24.00;12.07;;;;;;;;;;5066787;28;20079;-66
2022/03/25 12:16:57;;;;;;;24.00;12.77;;;;;;;;;;5067243;28;20048;-66
2022/03/25 12:19:43;;;;;;;20.35;11.40;;;;;;;;;;5065875;28;20052;-66
2022/03/25 12:22:32;;;;;;;25.30;13.75;;;;;;;;;;5063556;28;20055;-67
2022/03/25 12:25:08;;;;;;;27.10;14.13;;;;;;;;;;5067567;28;20123;-67
2022/03/25 12:27:38;;;;;;;28.95;13.68;;;;;;;;;;5067812;28;20127;-69
2022/03/25 12:30:07;;;;;;;24.08;12.45;;;;;;;;;;5062314;28;20117;-66
2022/03/25 12:32:36;;;;;;;27.15;13.20;;;;;;;;;;5062021;28;20569;-66
2022/03/25 12:35:06;;;;;;;21.80;11.77;;;;;;;;;;5063920;28;20094;-67
2022/03/25 12:37:38;;;;;;;23.98;12.02;;;;;;;;;;5056893;28;20135;-67
2022/03/25 12:40:15;;;;;;;25.88;12.57;;;;;;;;;;5067664;28;20135;-66
2022/03/25 12:42:44;;;;;;;25.33;12.57;;;;;;;;;;5065636;28;20472;-67
2022/03/25 12:45:12;;;;;;;28.17;12.57;;;;;;;;;;5060035;28;20110;-67
2022/03/25 12:47:48;;;;;;;21.70;11.07;;;;;;;;;;5062103;28;20539;-67
2022/03/25 12:50:17;;;;;;;23.33;11.45;;;;;;;;;;5050934;28;20053;-67
2022/03/25 12:52:46;;;;;;;19.33;10.63;;;;;;;;;;5062579;28;20057;-67
2022/03/25 12:55:16;;;;;;;18.10;10.43;;;;;;;;;;5059414;28;20044;-68
2022/03/25 12:57:46;;;;;;;20.02;11.68;;;;;;;;;;5068114;28;20056;-67
2022/03/25 13:00:15;;;;;;;23.77;11.93;;;;;;;;;;5056560;28;20363;-67
2022/03/25 13:02:44;;;;;;;20.52;11.15;;;;;;;;;;5053058;28;20052;-67
2022/03/25 13:05:16;;;;;;;20.38;10.77;;;;;;;;;;5053445;28;20053;-67
2022/03/25 13:07:46;;;;;;;17.35;11.13;;;;;;;;;;5056219;28;20044;-67
2022/03/25 13:10:16;;;;;;;20.05;10.63;;;;;;;;;;5064457;28;20048;-67
2022/03/25 13:12:50;;;;;;;19.83;10.98;;;;;;;;;;5054281;28;20049;-67
2022/03/25 13:15:23;;;;;;;21.17;11.83;;;;;;;;;;5061868;28;20048;-67
2022/03/25 13:17:52;;;;;;;22.38;11.32;;;;;;;;;;5066788;28;20048;-68
2022/03/25 13:20:22;;;;;;;20.05;11.07;;;;;;;;;;5057594;28;20379;-66
2022/03/25 13:22:55;;;;;;;19.48;11.13;;;;;;;;;;5064914;28;20076;-67
2022/03/25 13:25:29;;;;;;;25.65;12.90;;;;;;;;;;5069925;28;20044;-67
2022/03/25 13:27:59;;;;;;;23.38;11.82;;;;;;;;;;5066433;28;20045;-67
2022/03/25 13:30:28;;;;;;;25.05;11.30;;;;;;;;;;5064799;28;20044;-67
2022/03/25 13:32:58;;;;;;;23.88;12.30;;;;;;;;;;5060413;28;20148;-67
2022/03/25 13:35:50;;;;;;;26.20;13.10;;;;;;;;;;5059404;28;20053;-67
2022/03/25 13:38:19;;;;;;;25.65;12.48;;;;;;;;;;5060598;28;20048;-67
2022/03/25 13:40:50;;;;;;;23.85;12.23;;;;;;;;;;5082209;28;20048;-67
2022/03/25 13:43:23;;;;;;;24.52;13.15;;;;;;;;;;5077615;28;20051;-67
2022/03/25 13:45:59;;;;;;;25.13;12.75;;;;;;;;;;5084192;28;20503;-67
2022/03/25 13:48:36;;;;;;;23.88;12.52;;;;;;;;;;5081815;28;20054;-67
2022/03/25 13:51:17;;;;;;;24.35;13.60;;;;;;;;;;5086495;28;20040;-68
2022/03/25 13:53:46;;;;;;;28.73;13.10;;;;;;;;;;5084269;28;20040;-67
2022/03/25 13:56:17;;;;;;;25.88;13.20;;;;;;;;;;5086185;28;20059;-68
2022/03/25 13:58:47;;;;;;;24.02;12.68;;;;;;;;;;5090061;28;20508;-67
2022/03/25 14:01:31;;;;;;;24.17;12.55;;;;;;;;;;5086033;28;20048;-68
2022/03/25 14:04:04;;;;;;;25.38;13.15;;;;;;;;;;5083916;28;20068;-67
2022/03/25 14:06:35;;;;;;;25.15;13.23;;;;;;;;;;5089424;28;20040;-67
2022/03/25 14:09:31;;;;;;;22.90;11.43;;;;;;;;;;5082994;28;20062;-67
2022/03/25 14:12:02;;;;;;;30.33;12.75;;;;;;;;;;5089008;28;20060;-67
2022/03/25 14:14:32;;;;;;;28.98;11.65;;;;;;;;;;5089748;28;20059;-67
2022/03/25 14:17:00;;;;;;;29.05;13.10;;;;;;;;;;5087980;28;20047;-67
2022/03/25 14:19:29;;;;;;;26.45;12.32;;;;;;;;;;5086175;28;20089;-67
2022/03/25 14:21:57;;;;;;;24.63;13.13;;;;;;;;;;5088558;28;20138;-67
2022/03/25 14:24:33;;;;;;;25.00;12.90;;;;;;;;;;5088881;28;20089;-67
2022/03/25 14:27:04;;;;;;;23.00;12.30;;;;;;;;;;5086668;28;21568;-69
2022/03/25 14:29:33;;;;;;;23.15;11.63;;;;;;;;;;5081642;28;20569;-68
2022/03/25 14:32:02;;;;;;;25.80;11.73;;;;;;;;;;5087726;28;20052;-68
2022/03/25 14:34:30;;;;;;;23.98;11.93;;;;;;;;;;5082096;28;20048;-67
2022/03/25 14:36:59;;;;;;;24.70;12.23;;;;;;;;;;5084407;28;20087;-67
2022/03/25 14:39:27;;;;;;;30.45;13.07;;;;;;;;;;5087510;28;20047;-67
2022/03/25 14:42:01;;;;;;;21.08;11.43;;;;;;;;;;5079128;28;20075;-69
2022/03/25 14:44:31;;;;;;;23.40;11.40;;;;;;;;;;5080713;28;20073;-67
2022/03/25 14:47:00;;;;;;;24.13;11.88;;;;;;;;;;5087200;28;20188;-66
2022/03/25 14:49:29;;;;;;;21.60;11.45;;;;;;;;;;5086437;28;20052;-65
2022/03/25 14:51:58;;;;;;;23.50;11.70;;;;;;;;;;5088480;28;20047;-65
2022/03/25 14:54:27;;;;;;;20.35;11.25;;;;;;;;;;5089442;28;20048;-67
2022/03/25 14:56:55;;;;;;;22.75;12.40;;;;;;;;;;5088320;28;20048;-67